createdAt,value
2018-12-14T00:00:45.819Z,3.11
2018-12-14T00:01:46.058Z,3.23
2018-12-14T00:02:46.113Z,3.25
2018-12-14T00:03:46.241Z,3.25
2018-12-14T00:04:46.369Z,3.23
2018-12-14T00:05:46.502Z,3.20
2018-12-14T00:06:46.634Z,3.18
2018-12-14T00:07:46.757Z,3.25
2018-12-14T00:08:46.885Z,3.29
2018-12-14T00:09:47.017Z,3.17
2018-12-14T00:10:47.638Z,3.17
2018-12-14T00:11:47.280Z,3.15
2018-12-14T00:12:47.449Z,3.15
2018-12-14T00:13:47.573Z,3.18
2018-12-14T00:14:47.696Z,3.22
2018-12-14T00:15:47.829Z,3.18
2018-12-14T00:16:47.952Z,3.17
2018-12-14T00:17:48.077Z,3.12
2018-12-14T00:18:48.204Z,3.07
2018-12-14T00:19:48.329Z,3.00
2018-12-14T00:20:48.466Z,3.02
2018-12-14T00:21:48.590Z,3.02
2018-12-14T00:22:48.741Z,2.97
2018-12-14T00:23:48.841Z,2.99
2018-12-14T00:24:48.971Z,2.91
2018-12-14T00:25:49.093Z,2.93
2018-12-14T00:26:49.223Z,2.90
2018-12-14T00:27:49.345Z,2.84
2018-12-14T00:28:49.467Z,2.90
2018-12-14T00:29:49.591Z,2.82
2018-12-14T00:30:49.718Z,2.81
2018-12-14T00:31:49.842Z,2.89
2018-12-14T00:32:49.968Z,2.78
2018-12-14T00:33:50.098Z,2.84
2018-12-14T00:34:50.225Z,2.93
2018-12-14T00:35:50.346Z,2.86
2018-12-14T00:36:50.547Z,2.73
2018-12-14T00:37:50.579Z,2.79
2018-12-14T00:38:50.705Z,2.82
2018-12-14T00:39:50.835Z,2.86
2018-12-14T00:40:50.967Z,2.78
2018-12-14T00:41:52.020Z,2.72
2018-12-14T00:42:51.219Z,2.76
2018-12-14T00:43:51.346Z,2.79
2018-12-14T00:44:51.479Z,2.76
2018-12-14T00:45:51.600Z,2.81
2018-12-14T00:46:51.727Z,2.86
2018-12-14T00:47:51.854Z,2.75
2018-12-14T00:48:51.981Z,2.82
2018-12-14T00:49:52.107Z,2.84
2018-12-14T00:50:52.226Z,2.90
2018-12-14T00:51:53.121Z,2.94
2018-12-14T00:52:52.499Z,3.02
2018-12-14T00:53:52.627Z,2.90
2018-12-14T00:54:52.749Z,2.90
2018-12-14T00:55:52.874Z,2.90
2018-12-14T00:56:52.994Z,2.97
2018-12-14T00:57:53.121Z,2.93
2018-12-14T00:58:53.251Z,2.94
2018-12-14T00:59:53.374Z,2.91
2018-12-14T01:00:53.493Z,2.84
2018-12-14T01:01:53.627Z,2.73
2018-12-14T01:02:53.752Z,2.78
2018-12-14T01:03:53.881Z,2.72
2018-12-14T01:04:54.015Z,2.82
2018-12-14T01:05:54.132Z,2.76
2018-12-14T01:06:54.257Z,2.73
2018-12-14T01:07:54.387Z,2.76
2018-12-14T01:08:54.513Z,2.79
2018-12-14T01:09:54.634Z,2.73
2018-12-14T01:10:54.762Z,2.86
2018-12-14T01:11:58.217Z,2.79
2018-12-14T01:12:55.018Z,2.81
2018-12-14T01:13:55.142Z,2.84
2018-12-14T01:14:55.269Z,2.86
2018-12-14T01:15:55.399Z,2.79
2018-12-14T01:16:55.525Z,2.90
2018-12-14T01:17:55.655Z,2.84
2018-12-14T01:18:55.787Z,2.81
2018-12-14T01:19:55.912Z,2.86
2018-12-14T01:20:56.043Z,2.81
2018-12-14T01:21:56.164Z,2.90
2018-12-14T01:22:56.292Z,2.84
2018-12-14T01:23:56.418Z,2.94
2018-12-14T01:24:56.542Z,2.81
2018-12-14T01:25:56.671Z,2.84
2018-12-14T01:26:56.801Z,2.87
2018-12-14T01:27:56.935Z,2.90
2018-12-14T01:28:57.056Z,2.90
2018-12-14T01:29:57.178Z,2.89
2018-12-14T01:30:57.309Z,2.84
2018-12-14T01:31:57.437Z,2.94
2018-12-14T01:32:57.562Z,2.81
2018-12-14T01:33:57.686Z,2.94
2018-12-14T01:34:57.812Z,2.89
2018-12-14T01:35:57.940Z,2.72
2018-12-14T01:36:58.066Z,2.81
2018-12-14T01:37:58.192Z,2.79
2018-12-14T01:38:58.316Z,2.72
2018-12-14T01:39:59.123Z,2.79
2018-12-14T01:40:58.530Z,2.72
2018-12-14T01:42:04.624Z,2.84
2018-12-14T01:42:58.783Z,2.79
2018-12-14T01:43:58.905Z,2.87
2018-12-14T01:44:59.026Z,2.78
2018-12-14T01:45:59.153Z,2.78
2018-12-14T01:46:59.278Z,2.78
2018-12-14T01:47:59.403Z,2.78
2018-12-14T01:48:59.530Z,2.89
2018-12-14T01:49:59.664Z,2.90
2018-12-14T01:50:59.788Z,2.86
2018-12-14T01:51:59.907Z,2.84
2018-12-14T01:53:00.036Z,2.84
2018-12-14T01:54:00.170Z,2.93
2018-12-14T01:55:00.295Z,2.96
2018-12-14T01:56:00.421Z,2.94
2018-12-14T01:57:00.550Z,2.84
2018-12-14T01:58:00.675Z,2.94
2018-12-14T01:59:00.800Z,2.93
2018-12-14T02:00:00.977Z,2.94
2018-12-14T02:01:01.056Z,2.94
2018-12-14T02:02:01.185Z,3.02
2018-12-14T02:03:01.308Z,2.91
2018-12-14T02:04:01.432Z,3.02
2018-12-14T02:05:01.561Z,2.91
2018-12-14T02:06:01.684Z,3.00
2018-12-14T02:07:01.812Z,3.00
2018-12-14T02:08:01.940Z,2.97
2018-12-14T02:09:02.061Z,3.04
2018-12-14T02:10:02.189Z,3.04
2018-12-14T02:11:02.321Z,3.05
2018-12-14T02:12:02.455Z,3.00
2018-12-14T02:13:02.582Z,3.02
2018-12-14T02:14:02.709Z,3.11
2018-12-14T02:15:02.834Z,3.04
2018-12-14T02:16:02.959Z,3.05
2018-12-14T02:17:03.084Z,3.05
2018-12-14T02:18:03.203Z,3.12
2018-12-14T02:19:03.336Z,3.14
2018-12-14T02:20:03.462Z,3.14
2018-12-14T02:21:03.584Z,3.14
2018-12-14T02:22:03.709Z,3.04
2018-12-14T02:23:03.839Z,3.11
2018-12-14T02:24:03.970Z,3.14
2018-12-14T02:25:04.092Z,3.11
2018-12-14T02:26:04.214Z,3.07
2018-12-14T02:27:04.345Z,3.17
2018-12-14T02:28:04.474Z,3.09
2018-12-14T02:29:04.601Z,3.11
2018-12-14T02:30:04.726Z,3.05
2018-12-14T02:31:04.850Z,2.99
2018-12-14T02:32:04.975Z,3.00
2018-12-14T02:33:05.102Z,2.99
2018-12-14T02:34:05.233Z,3.02
2018-12-14T02:35:05.360Z,2.93
2018-12-14T02:36:05.480Z,2.97
2018-12-14T02:37:05.601Z,2.99
2018-12-14T02:38:05.797Z,3.00
2018-12-14T02:39:05.877Z,3.04
2018-12-14T02:40:05.979Z,3.05
2018-12-14T02:41:06.117Z,3.05
2018-12-14T02:42:06.238Z,3.04
2018-12-14T02:43:06.363Z,2.96
2018-12-14T02:44:06.491Z,3.05
2018-12-14T02:45:06.617Z,3.02
2018-12-14T02:46:06.745Z,2.97
2018-12-14T02:47:06.877Z,3.04
2018-12-14T02:48:06.997Z,3.04
2018-12-14T02:49:07.127Z,3.07
2018-12-14T02:50:07.246Z,3.04
2018-12-14T02:51:07.375Z,2.99
2018-12-14T02:52:07.493Z,3.02
2018-12-14T02:53:07.627Z,3.02
2018-12-14T02:54:07.755Z,3.00
2018-12-14T02:55:07.875Z,2.99
2018-12-14T02:56:07.991Z,3.02
2018-12-14T02:57:08.121Z,3.04
2018-12-14T02:58:08.254Z,3.09
2018-12-14T02:59:08.378Z,3.04
2018-12-14T03:00:08.501Z,2.86
2018-12-14T03:01:08.657Z,2.79
2018-12-14T03:02:08.753Z,2.91
2018-12-14T03:03:08.873Z,2.97
2018-12-14T03:04:08.999Z,2.86
2018-12-14T03:05:09.129Z,3.07
2018-12-14T03:06:09.256Z,2.99
2018-12-14T03:07:09.391Z,2.97
2018-12-14T03:08:09.523Z,2.99
2018-12-14T03:09:09.646Z,2.91
2018-12-14T03:10:09.776Z,2.93
2018-12-14T03:11:09.901Z,2.91
2018-12-14T03:12:10.028Z,2.91
2018-12-14T03:13:10.155Z,2.96
2018-12-14T03:14:10.286Z,2.96
2018-12-14T03:15:10.409Z,2.76
2018-12-14T03:16:10.540Z,2.73
2018-12-14T03:17:10.667Z,2.84
2018-12-14T03:18:10.792Z,2.86
2018-12-14T03:19:10.974Z,2.93
2018-12-14T03:20:11.044Z,2.93
2018-12-14T03:21:11.174Z,2.91
2018-12-14T03:22:11.296Z,2.97
2018-12-14T03:23:11.419Z,3.04
2018-12-14T03:24:11.544Z,3.02
2018-12-14T03:25:11.672Z,3.08
2018-12-14T03:26:11.801Z,3.04
2018-12-14T03:27:11.928Z,3.02
2018-12-14T03:28:12.056Z,3.00
2018-12-14T03:29:12.250Z,2.99
2018-12-14T03:30:12.312Z,3.08
2018-12-14T03:31:12.444Z,2.90
2018-12-14T03:32:12.574Z,2.81
2018-12-14T03:33:12.698Z,2.75
2018-12-14T03:34:12.823Z,2.79
2018-12-14T03:35:12.948Z,2.76
2018-12-14T03:36:13.071Z,2.73
2018-12-14T03:37:13.202Z,2.86
2018-12-14T03:38:13.335Z,2.89
2018-12-14T03:39:13.456Z,2.79
2018-12-14T03:40:13.583Z,2.91
2018-12-14T03:41:13.705Z,2.82
2018-12-14T03:42:13.833Z,2.87
2018-12-14T03:43:13.967Z,3.04
2018-12-14T03:44:14.086Z,2.99
2018-12-14T03:45:14.211Z,3.00
2018-12-14T03:46:14.338Z,2.94
2018-12-14T03:47:14.468Z,2.99
2018-12-14T03:48:14.589Z,3.08
2018-12-14T03:49:14.717Z,3.02
2018-12-14T03:50:14.844Z,2.91
2018-12-14T03:51:14.969Z,2.84
2018-12-14T03:52:15.099Z,2.93
2018-12-14T03:53:15.227Z,2.91
2018-12-14T03:54:15.350Z,2.99
2018-12-14T03:55:15.474Z,2.99
2018-12-14T03:56:15.602Z,3.00
2018-12-14T03:57:15.731Z,2.93
2018-12-14T03:58:15.854Z,3.02
2018-12-14T03:59:15.978Z,3.07
2018-12-14T04:00:16.108Z,3.11
2018-12-14T04:01:16.234Z,3.11
2018-12-14T04:02:16.370Z,3.15
2018-12-14T04:03:17.127Z,3.20
2018-12-14T04:04:16.568Z,3.14
2018-12-14T04:05:16.692Z,3.17
2018-12-14T04:06:16.817Z,3.17
2018-12-14T04:07:16.943Z,3.26
2018-12-14T04:08:17.070Z,3.27
2018-12-14T04:09:17.195Z,3.26
2018-12-14T04:10:17.318Z,3.29
2018-12-14T04:11:17.452Z,3.30
2018-12-14T04:12:17.576Z,3.17
2018-12-14T04:13:17.708Z,3.18
2018-12-14T04:14:17.838Z,3.30
2018-12-14T04:15:17.963Z,3.32
2018-12-14T04:16:18.103Z,3.30
2018-12-14T04:17:18.228Z,3.36
2018-12-14T04:18:18.350Z,3.33
2018-12-14T04:19:18.473Z,3.35
2018-12-14T04:20:18.602Z,3.35
2018-12-14T04:21:18.728Z,3.35
2018-12-14T04:22:18.865Z,3.32
2018-12-14T04:23:18.984Z,3.37
2018-12-14T04:24:19.112Z,3.41
2018-12-14T04:25:19.238Z,3.41
2018-12-14T04:26:19.378Z,3.41
2018-12-14T04:27:19.501Z,3.32
2018-12-14T04:28:19.634Z,3.08
2018-12-14T04:29:19.755Z,2.97
2018-12-14T04:30:19.875Z,2.93
2018-12-14T04:31:20.007Z,3.02
2018-12-14T04:32:20.133Z,3.00
2018-12-14T04:33:20.261Z,2.99
2018-12-14T04:34:20.389Z,3.05
2018-12-14T04:35:20.519Z,3.02
2018-12-14T04:36:20.666Z,2.93
2018-12-14T04:37:20.790Z,2.81
2018-12-14T04:38:20.916Z,2.91
2018-12-14T04:39:21.049Z,2.93
2018-12-14T04:40:21.173Z,3.05
2018-12-14T04:41:21.299Z,2.91
2018-12-14T04:42:21.429Z,2.87
2018-12-14T04:43:21.554Z,2.91
2018-12-14T04:44:21.674Z,2.89
2018-12-14T04:45:21.806Z,2.79
2018-12-14T04:46:21.926Z,2.73
2018-12-14T04:47:22.057Z,2.78
2018-12-14T04:48:22.183Z,2.76
2018-12-14T04:49:22.346Z,2.76
2018-12-14T04:50:22.436Z,2.82
2018-12-14T04:51:22.561Z,2.93
2018-12-14T04:52:22.684Z,2.89
2018-12-14T04:53:22.816Z,2.79
2018-12-14T04:54:22.942Z,2.78
2018-12-14T04:55:23.071Z,2.78
2018-12-14T04:56:23.194Z,2.71
2018-12-14T04:57:23.321Z,2.72
2018-12-14T04:58:23.443Z,2.69
2018-12-14T04:59:23.575Z,2.60
2018-12-14T05:00:23.703Z,2.57
2018-12-14T05:01:23.836Z,2.63
2018-12-14T05:02:23.961Z,2.69
2018-12-14T05:03:24.084Z,2.71
2018-12-14T05:04:24.210Z,2.63
2018-12-14T05:05:24.341Z,2.75
2018-12-14T05:06:24.467Z,2.81
2018-12-14T05:07:24.597Z,2.79
2018-12-14T05:08:24.728Z,2.81
2018-12-14T05:09:24.863Z,2.81
2018-12-14T05:10:24.984Z,2.68
2018-12-14T05:11:25.104Z,2.78
2018-12-14T05:12:25.236Z,2.73
2018-12-14T05:13:25.363Z,2.68
2018-12-14T05:14:25.525Z,2.66
2018-12-14T05:15:25.622Z,2.69
2018-12-14T05:16:25.750Z,2.61
2018-12-14T05:17:25.877Z,2.71
2018-12-14T05:18:26.001Z,2.73
2018-12-14T05:19:26.135Z,2.71
2018-12-14T05:20:26.260Z,2.72
2018-12-14T05:21:26.388Z,2.75
2018-12-14T05:22:26.513Z,2.86
2018-12-14T05:23:26.640Z,2.86
2018-12-14T05:24:26.764Z,2.87
2018-12-14T05:25:26.891Z,2.97
2018-12-14T05:26:27.027Z,2.99
2018-12-14T05:27:27.139Z,3.02
2018-12-14T05:28:27.270Z,3.04
2018-12-14T05:29:27.397Z,3.09
2018-12-14T05:30:27.525Z,3.18
2018-12-14T05:31:27.646Z,3.20
2018-12-14T05:32:27.771Z,3.27
2018-12-14T05:33:27.904Z,3.37
2018-12-14T05:34:28.026Z,3.26
2018-12-14T05:35:28.166Z,3.32
2018-12-14T05:36:28.295Z,3.29
2018-12-14T05:37:28.426Z,3.30
2018-12-14T05:38:28.583Z,3.36
2018-12-14T05:39:28.677Z,3.25
2018-12-14T05:40:28.807Z,3.15
2018-12-14T05:41:28.929Z,3.14
2018-12-14T05:42:29.052Z,3.23
2018-12-14T05:43:29.178Z,3.18
2018-12-14T05:44:29.309Z,3.30
2018-12-14T05:45:29.433Z,3.29
2018-12-14T05:46:29.562Z,3.33
2018-12-14T05:47:29.684Z,3.32
2018-12-14T05:48:29.810Z,3.33
2018-12-14T05:49:29.939Z,3.37
2018-12-14T05:50:30.067Z,3.42
2018-12-14T05:51:30.191Z,3.36
2018-12-14T05:52:30.320Z,3.30
2018-12-14T05:53:30.449Z,3.25
2018-12-14T05:54:30.582Z,3.14
2018-12-14T05:55:30.719Z,3.15
2018-12-14T05:56:30.848Z,3.18
2018-12-14T05:57:30.975Z,3.18
2018-12-14T05:58:31.113Z,3.15
2018-12-14T05:59:31.241Z,3.12
2018-12-14T06:00:31.368Z,3.25
2018-12-14T06:01:31.496Z,3.17
2018-12-14T06:02:31.623Z,3.12
2018-12-14T06:03:31.757Z,3.20
2018-12-14T06:04:31.892Z,3.02
2018-12-14T06:05:32.036Z,3.15
2018-12-14T06:06:32.142Z,3.11
2018-12-14T06:07:32.269Z,3.09
2018-12-14T06:08:32.399Z,3.14
2018-12-14T06:09:32.521Z,3.25
2018-12-14T06:10:32.650Z,3.15
2018-12-14T06:11:32.775Z,3.29
2018-12-14T06:12:32.904Z,3.30
2018-12-14T06:13:33.036Z,3.27
2018-12-14T06:14:33.156Z,3.23
2018-12-14T06:15:33.286Z,3.22
2018-12-14T06:16:33.409Z,3.17
2018-12-14T06:17:33.542Z,3.17
2018-12-14T06:18:33.676Z,3.29
2018-12-14T06:19:33.806Z,3.25
2018-12-14T06:20:33.934Z,3.20
2018-12-14T06:21:34.070Z,3.26
2018-12-14T06:22:34.192Z,3.26
2018-12-14T06:23:34.318Z,3.29
2018-12-14T06:24:34.444Z,3.18
2018-12-14T06:25:34.571Z,3.14
2018-12-14T06:26:34.703Z,3.02
2018-12-14T06:27:34.893Z,3.14
2018-12-14T06:28:34.897Z,3.14
2018-12-14T06:29:35.028Z,3.05
2018-12-14T06:30:35.151Z,3.04
2018-12-14T06:31:35.279Z,2.97
2018-12-14T06:32:35.410Z,3.04
2018-12-14T06:33:35.536Z,2.90
2018-12-14T06:34:35.670Z,2.84
2018-12-14T06:35:35.791Z,2.84
2018-12-14T06:36:35.921Z,2.72
2018-12-14T06:37:36.047Z,2.73
2018-12-14T06:38:36.187Z,2.75
2018-12-14T06:39:36.309Z,2.91
2018-12-14T06:40:36.436Z,2.91
2018-12-14T06:41:36.571Z,2.97
2018-12-14T06:42:36.693Z,3.14
2018-12-14T06:43:36.820Z,3.09
2018-12-14T06:44:37.631Z,3.22
2018-12-14T06:45:37.037Z,3.12
2018-12-14T06:46:37.166Z,3.25
2018-12-14T06:47:37.289Z,3.30
2018-12-14T06:48:37.420Z,3.25
2018-12-14T06:49:37.540Z,3.26
2018-12-14T06:50:37.667Z,3.17
2018-12-14T06:51:37.799Z,3.15
2018-12-14T06:52:37.923Z,3.05
2018-12-14T06:53:38.054Z,3.00
2018-12-14T06:54:38.181Z,3.05
2018-12-14T06:55:38.310Z,2.90
2018-12-14T06:56:38.430Z,2.96
2018-12-14T06:57:38.559Z,2.91
2018-12-14T06:58:38.692Z,2.75
2018-12-14T06:59:38.816Z,2.73
2018-12-14T07:00:38.944Z,2.78
2018-12-14T07:01:39.070Z,2.79
2018-12-14T07:02:39.196Z,2.96
2018-12-14T07:03:39.321Z,3.05
2018-12-14T07:04:39.451Z,3.17
2018-12-14T07:05:39.578Z,3.15
2018-12-14T07:06:39.708Z,3.26
2018-12-14T07:07:39.834Z,3.12
2018-12-14T07:08:39.957Z,3.26
2018-12-14T07:09:40.091Z,3.23
2018-12-14T07:10:40.216Z,3.20
2018-12-14T07:11:40.341Z,3.11
2018-12-14T07:12:40.837Z,3.04
2018-12-14T07:13:40.602Z,3.04
2018-12-14T07:14:40.730Z,3.11
2018-12-14T07:15:40.852Z,3.09
2018-12-14T07:16:40.979Z,3.17
2018-12-14T07:17:41.107Z,3.27
2018-12-14T07:18:41.236Z,3.22
2018-12-14T07:19:41.363Z,3.12
2018-12-14T07:20:41.490Z,3.23
2018-12-14T07:21:41.614Z,3.23
2018-12-14T07:22:41.756Z,3.26
2018-12-14T07:23:41.997Z,3.25
2018-12-14T07:24:42.005Z,3.27
2018-12-14T07:25:42.127Z,3.41
2018-12-14T07:26:42.254Z,3.37
2018-12-14T07:27:42.380Z,3.49
2018-12-14T07:28:42.506Z,3.35
2018-12-14T07:29:42.643Z,3.33
2018-12-14T07:30:42.761Z,3.26
2018-12-14T07:31:42.889Z,3.15
2018-12-14T07:32:43.014Z,3.18
2018-12-14T07:33:43.146Z,3.12
2018-12-14T07:34:43.265Z,2.97
2018-12-14T07:35:43.404Z,3.14
2018-12-14T07:36:43.529Z,3.23
2018-12-14T07:37:43.667Z,3.15
2018-12-14T07:38:48.177Z,3.20
2018-12-14T07:39:43.913Z,3.26
2018-12-14T07:40:44.042Z,3.27
2018-12-14T07:41:44.163Z,3.30
2018-12-14T07:42:44.297Z,3.26
2018-12-14T07:43:44.423Z,3.23
2018-12-14T07:44:44.592Z,3.36
2018-12-14T07:45:44.682Z,3.32
2018-12-14T07:46:44.812Z,3.33
2018-12-14T07:47:44.981Z,3.32
2018-12-14T07:48:45.108Z,3.33
2018-12-14T07:49:46.128Z,3.35
2018-12-14T07:50:45.415Z,3.37
2018-12-14T07:51:45.547Z,3.54
2018-12-14T07:52:45.671Z,3.36
2018-12-14T07:53:45.803Z,3.55
2018-12-14T07:54:45.931Z,3.59
2018-12-14T07:55:46.052Z,3.69
2018-12-14T07:56:46.181Z,3.67
2018-12-14T07:57:46.308Z,3.69
2018-12-14T07:58:46.438Z,3.67
2018-12-14T07:59:46.580Z,3.64
2018-12-14T08:00:46.716Z,3.70
2018-12-14T08:01:46.844Z,3.74
2018-12-14T08:02:46.973Z,3.80
2018-12-14T08:03:47.104Z,3.69
2018-12-14T08:04:47.229Z,3.78
2018-12-14T08:05:47.356Z,3.85
2018-12-14T08:06:47.498Z,3.81
2018-12-14T08:07:47.628Z,3.67
2018-12-14T08:08:47.754Z,3.85
2018-12-14T08:09:47.888Z,3.78
2018-12-14T08:10:48.014Z,3.70
2018-12-14T08:11:48.142Z,3.73
2018-12-14T08:12:48.271Z,3.67
2018-12-14T08:13:48.395Z,3.73
2018-12-14T08:14:48.529Z,3.82
2018-12-14T08:15:48.656Z,3.78
2018-12-14T08:16:48.784Z,3.90
2018-12-14T08:17:48.917Z,3.70
2018-12-14T08:18:49.039Z,3.66
2018-12-14T08:19:49.180Z,3.70
2018-12-14T08:20:49.326Z,3.73
2018-12-14T08:21:49.461Z,3.72
2018-12-14T08:22:49.587Z,3.72
2018-12-14T08:23:49.716Z,3.64
2018-12-14T08:24:49.844Z,3.80
2018-12-14T08:25:49.974Z,3.76
2018-12-14T08:26:50.105Z,3.78
2018-12-14T08:27:50.234Z,3.76
2018-12-14T08:28:50.362Z,3.72
2018-12-14T08:29:51.826Z,3.90
2018-12-14T08:30:50.613Z,3.88
2018-12-14T08:31:50.740Z,3.84
2018-12-14T08:32:50.875Z,3.84
2018-12-14T08:33:51.001Z,3.85
2018-12-14T08:34:51.485Z,3.87
2018-12-14T08:35:51.257Z,3.85
2018-12-14T08:36:51.386Z,3.96
2018-12-14T08:37:51.514Z,3.92
2018-12-14T08:38:51.638Z,3.90
2018-12-14T08:39:51.767Z,3.92
2018-12-14T08:40:51.897Z,3.88
2018-12-14T08:41:52.154Z,3.81
2018-12-14T08:42:52.174Z,3.81
2018-12-14T08:43:52.300Z,3.90
2018-12-14T08:44:52.433Z,3.90
2018-12-14T08:45:52.560Z,4.00
2018-12-14T08:46:52.695Z,3.85
2018-12-14T08:47:52.820Z,3.92
2018-12-14T08:48:52.944Z,3.82
2018-12-14T08:49:53.077Z,3.87
2018-12-14T08:50:53.224Z,3.88
2018-12-14T08:51:53.347Z,3.87
2018-12-14T08:52:53.479Z,3.96
2018-12-14T08:53:53.604Z,3.70
2018-12-14T08:54:53.733Z,3.69
2018-12-14T08:55:53.860Z,3.62
2018-12-14T08:56:53.988Z,3.63
2018-12-14T08:57:54.113Z,3.63
2018-12-14T08:58:54.239Z,3.70
2018-12-14T08:59:54.370Z,3.74
2018-12-14T09:00:54.502Z,3.73
2018-12-14T09:01:54.631Z,3.70
2018-12-14T09:02:54.759Z,3.69
2018-12-14T09:03:54.894Z,3.69
2018-12-14T09:04:55.028Z,3.66
2018-12-14T09:05:55.158Z,3.73
2018-12-14T09:06:55.293Z,3.69
2018-12-14T09:07:55.423Z,3.62
2018-12-14T09:08:55.551Z,3.70
2018-12-14T09:09:55.685Z,3.55
2018-12-14T09:10:55.815Z,3.51
2018-12-14T09:11:55.949Z,3.56
2018-12-14T09:12:56.077Z,3.51
2018-12-14T09:13:56.205Z,3.35
2018-12-14T09:14:56.336Z,3.51
2018-12-14T09:15:56.467Z,3.54
2018-12-14T09:16:56.604Z,3.35
2018-12-14T09:17:56.727Z,3.35
2018-12-14T09:18:56.858Z,3.15
2018-12-14T09:19:56.991Z,3.20
2018-12-14T09:21:01.026Z,3.33
2018-12-14T09:21:57.243Z,3.27
2018-12-14T09:22:57.368Z,3.14
2018-12-14T09:23:57.515Z,3.23
2018-12-14T09:24:57.638Z,3.15
2018-12-14T09:25:57.766Z,3.23
2018-12-14T09:26:58.646Z,3.23
2018-12-14T09:29:29.855Z,3.29
2018-12-14T09:30:29.979Z,3.32
2018-12-14T09:31:30.104Z,3.23
2018-12-14T09:32:30.232Z,3.27
2018-12-14T09:33:30.358Z,3.17
2018-12-14T09:34:30.487Z,3.14
2018-12-14T09:35:30.612Z,3.32
2018-12-14T09:36:30.735Z,3.36
2018-12-14T09:37:30.863Z,3.29
2018-12-14T09:38:30.982Z,3.29
2018-12-14T09:39:31.110Z,3.32
2018-12-14T09:40:31.242Z,3.41
2018-12-14T09:41:31.369Z,3.41
2018-12-14T09:42:31.504Z,3.37
2018-12-14T09:43:31.628Z,3.42
2018-12-14T09:44:31.763Z,3.45
2018-12-14T09:45:31.887Z,3.54
2018-12-14T09:46:37.003Z,3.48
2018-12-14T09:47:32.137Z,3.44
2018-12-14T09:48:32.269Z,3.30
2018-12-14T09:49:32.416Z,3.48
2018-12-14T09:50:32.534Z,3.45
2018-12-14T09:51:32.668Z,3.45
2018-12-14T09:52:32.798Z,3.41
2018-12-14T09:53:32.923Z,3.37
2018-12-14T09:54:33.049Z,3.36
2018-12-14T09:55:33.179Z,3.37
2018-12-14T09:56:33.314Z,3.32
2018-12-14T09:57:33.442Z,3.30
2018-12-14T09:58:33.644Z,3.33
2018-12-14T09:59:33.702Z,3.33
2018-12-14T10:00:33.837Z,3.41
2018-12-14T10:01:33.961Z,3.35
2018-12-14T10:02:34.090Z,3.37
2018-12-14T10:03:34.234Z,3.37
2018-12-14T10:04:34.367Z,3.37
2018-12-14T10:05:34.490Z,3.32
2018-12-14T10:06:34.633Z,3.32
2018-12-14T10:07:34.747Z,3.33
2018-12-14T10:08:34.872Z,3.27
2018-12-14T10:09:34.999Z,3.15
2018-12-14T10:10:35.120Z,3.11
2018-12-14T10:11:35.244Z,3.15
2018-12-14T10:12:35.380Z,3.11
2018-12-14T10:13:35.507Z,3.14
2018-12-14T10:14:35.645Z,3.14
2018-12-14T10:15:35.772Z,3.18
2018-12-14T10:16:35.906Z,3.25
2018-12-14T10:17:36.029Z,3.26
2018-12-14T10:18:36.157Z,3.22
2018-12-14T10:19:36.285Z,3.14
2018-12-14T10:20:36.411Z,3.33
2018-12-14T10:21:36.536Z,3.36
2018-12-14T10:22:41.514Z,3.37
2018-12-14T10:23:36.795Z,3.44
2018-12-14T10:24:36.922Z,3.41
2018-12-14T10:25:37.052Z,3.35
2018-12-14T10:26:37.171Z,3.37
2018-12-14T10:27:37.303Z,3.35
2018-12-14T10:28:37.430Z,3.26
2018-12-14T10:29:37.571Z,3.26
2018-12-14T10:30:37.688Z,3.22
2018-12-14T10:31:37.813Z,3.30
2018-12-14T10:32:37.938Z,3.32
2018-12-14T10:33:38.066Z,3.25
2018-12-14T10:34:38.195Z,3.11
2018-12-14T10:35:38.320Z,3.02
2018-12-14T10:36:38.447Z,2.99
2018-12-14T10:37:38.578Z,3.05
2018-12-14T10:38:38.705Z,3.15
2018-12-14T10:39:38.835Z,3.09
2018-12-14T10:40:38.962Z,3.14
2018-12-14T10:41:39.093Z,3.22
2018-12-14T10:42:39.234Z,3.18
2018-12-14T10:43:39.372Z,3.11
2018-12-14T10:44:39.500Z,3.05
2018-12-14T10:45:39.623Z,3.02
2018-12-14T10:46:39.773Z,2.86
2018-12-14T10:47:39.896Z,2.99
2018-12-14T10:48:40.029Z,3.14
2018-12-14T10:49:40.161Z,3.07
2018-12-14T10:50:40.295Z,3.09
2018-12-14T10:51:40.423Z,3.12
2018-12-14T10:52:40.556Z,3.04
2018-12-14T10:53:40.673Z,3.11
2018-12-14T10:54:40.799Z,3.20
2018-12-14T10:55:40.937Z,3.15
2018-12-14T10:56:41.060Z,3.20
2018-12-14T10:57:41.187Z,3.26
2018-12-14T10:58:41.322Z,3.27
2018-12-14T10:59:41.464Z,3.20
2018-12-14T11:00:41.595Z,3.11
2018-12-14T11:01:41.851Z,3.11
2018-12-14T11:02:41.874Z,3.11
2018-12-14T11:03:41.995Z,3.05
2018-12-14T11:04:42.167Z,3.18
2018-12-14T11:05:42.268Z,3.12
2018-12-14T11:06:42.386Z,3.17
2018-12-14T11:07:42.518Z,3.02
2018-12-14T11:08:42.662Z,3.02
2018-12-14T11:09:42.779Z,3.05
2018-12-14T11:10:42.907Z,2.97
2018-12-14T11:11:43.033Z,3.02
2018-12-14T11:12:43.185Z,3.04
2018-12-14T11:13:43.299Z,3.07
2018-12-14T11:14:43.427Z,2.97
2018-12-14T11:15:43.554Z,2.90
2018-12-14T11:16:43.696Z,2.86
2018-12-14T11:17:43.823Z,2.84
2018-12-14T11:18:43.947Z,2.94
2018-12-14T11:19:44.077Z,2.81
2018-12-14T11:20:44.210Z,2.89
2018-12-14T11:21:44.315Z,2.86
2018-12-14T11:22:44.445Z,2.89
2018-12-14T11:23:44.573Z,3.00
2018-12-14T11:24:44.738Z,2.84
2018-12-14T11:25:44.843Z,2.93
2018-12-14T11:26:44.969Z,3.02
2018-12-14T11:27:45.094Z,3.04
2018-12-14T11:28:45.243Z,3.14
2018-12-14T11:29:45.349Z,2.99
2018-12-14T11:30:45.479Z,3.04
2018-12-14T11:31:45.607Z,3.09
2018-12-14T11:32:45.765Z,3.07
2018-12-14T11:33:45.865Z,3.04
2018-12-14T11:34:45.994Z,3.00
2018-12-14T11:35:46.124Z,3.12
2018-12-14T11:36:46.251Z,3.17
2018-12-14T11:37:46.369Z,3.12
2018-12-14T11:38:46.498Z,3.09
2018-12-14T11:39:46.631Z,3.18
2018-12-14T11:40:46.759Z,3.20
2018-12-14T11:41:46.894Z,3.30
2018-12-14T11:42:47.019Z,3.22
2018-12-14T11:43:47.169Z,3.36
2018-12-14T11:44:47.283Z,3.37
2018-12-14T11:45:47.409Z,3.37
2018-12-14T11:46:47.538Z,3.32
2018-12-14T11:47:47.701Z,3.37
2018-12-14T11:48:47.804Z,3.26
2018-12-14T11:49:48.555Z,3.12
2018-12-14T11:50:48.068Z,3.14
2018-12-14T11:51:48.231Z,3.02
2018-12-14T11:52:48.341Z,2.99
2018-12-14T11:53:48.482Z,3.02
2018-12-14T11:54:48.623Z,3.02
2018-12-14T11:55:48.737Z,3.20
2018-12-14T11:56:48.872Z,3.20
2018-12-14T11:57:48.993Z,3.14
2018-12-14T11:58:49.128Z,3.15
2018-12-14T11:59:49.268Z,3.18
2018-12-14T12:00:49.393Z,3.20
2018-12-14T12:01:49.540Z,3.08
2018-12-14T12:02:49.661Z,3.00
2018-12-14T12:03:49.782Z,3.09
2018-12-14T12:04:49.920Z,3.12
2018-12-14T12:05:50.041Z,3.20
2018-12-14T12:06:50.166Z,3.15
2018-12-14T12:07:50.289Z,3.20
2018-12-14T12:08:50.433Z,3.27
2018-12-14T12:09:50.542Z,3.29
2018-12-14T12:10:50.726Z,3.26
2018-12-14T12:11:50.798Z,3.33
2018-12-14T12:12:50.932Z,3.22
2018-12-14T12:13:51.052Z,3.27
2018-12-14T12:14:51.186Z,3.26
2018-12-14T12:15:51.322Z,3.26
2018-12-14T12:16:51.496Z,3.18
2018-12-14T12:17:51.594Z,3.23
2018-12-14T12:18:51.716Z,3.17
2018-12-14T12:19:51.865Z,3.09
2018-12-14T12:20:53.020Z,3.18
2018-12-14T12:21:52.154Z,3.20
2018-12-14T12:22:52.280Z,3.20
2018-12-14T12:23:55.215Z,3.08
2018-12-14T12:24:52.537Z,3.08
2018-12-14T12:25:52.665Z,3.00
2018-12-14T12:26:52.790Z,3.07
2018-12-14T12:27:52.941Z,3.00
2018-12-14T12:28:53.059Z,3.00
2018-12-14T12:29:53.186Z,2.97
2018-12-14T12:30:53.307Z,2.93
2018-12-14T12:31:53.433Z,3.00
2018-12-14T12:32:53.556Z,3.00
2018-12-14T12:33:53.704Z,2.97
2018-12-14T12:34:53.839Z,2.79
2018-12-14T12:35:53.979Z,2.73
2018-12-14T12:36:54.103Z,2.68
2018-12-14T12:37:54.230Z,2.75
2018-12-14T12:38:54.359Z,2.72
2018-12-14T12:39:54.507Z,2.72
2018-12-14T12:40:54.652Z,2.78
2018-12-14T12:41:54.777Z,2.90
2018-12-14T12:42:54.907Z,2.76
2018-12-14T12:43:55.043Z,2.78
2018-12-14T12:44:55.189Z,2.86
2018-12-14T12:45:55.314Z,2.86
2018-12-14T12:46:55.437Z,2.72
2018-12-14T12:47:55.565Z,2.78
2018-12-14T12:48:55.696Z,2.73
2018-12-14T12:49:55.820Z,2.68
2018-12-14T12:50:55.952Z,2.60
2018-12-14T12:51:56.080Z,2.60
2018-12-14T12:52:56.214Z,2.68
2018-12-14T12:53:56.343Z,2.75
2018-12-14T12:54:56.483Z,2.79
2018-12-14T12:55:56.616Z,2.75
2018-12-14T12:56:56.736Z,2.72
2018-12-14T12:57:56.880Z,2.79
2018-12-14T12:58:57.023Z,2.78
2018-12-14T12:59:57.155Z,2.69
2018-12-14T13:00:57.277Z,2.87
2018-12-14T13:01:57.414Z,2.79
2018-12-14T13:02:57.604Z,2.72
2018-12-14T13:03:57.752Z,2.65
2018-12-14T13:04:57.873Z,2.61
2018-12-14T13:05:58.043Z,2.61
2018-12-14T13:06:58.065Z,2.73
2018-12-14T13:07:58.238Z,2.68
2018-12-14T13:08:58.348Z,2.71
2018-12-14T13:09:58.472Z,2.63
2018-12-14T13:10:58.613Z,2.73
2018-12-14T13:11:58.732Z,2.72
2018-12-14T13:12:58.860Z,2.73
2018-12-14T13:13:58.987Z,2.81
2018-12-14T13:14:59.141Z,2.79
2018-12-14T13:15:59.264Z,3.00
2018-12-14T13:16:59.389Z,3.00
2018-12-14T13:17:59.527Z,3.05
2018-12-14T13:18:59.650Z,2.84
2018-12-14T13:19:59.816Z,2.94
2018-12-14T13:20:59.939Z,2.89
2018-12-14T13:22:00.084Z,2.76